createdAt,value
2019-03-31T00:01:43.286Z,90.70
2019-03-31T00:04:11.776Z,90.90
2019-03-31T00:06:40.229Z,91.10
2019-03-31T00:09:08.934Z,91.30
2019-03-31T00:11:37.518Z,91.30
2019-03-31T00:14:06.017Z,91.30
2019-03-31T00:16:34.545Z,91.30
2019-03-31T00:19:02.978Z,91.10
2019-03-31T00:21:31.430Z,90.90
2019-03-31T00:23:59.922Z,91.00
2019-03-31T00:26:28.395Z,91.10
2019-03-31T00:28:56.805Z,91.30
2019-03-31T00:31:25.279Z,91.40
2019-03-31T00:33:53.747Z,91.40
2019-03-31T00:36:22.280Z,91.40
2019-03-31T00:38:50.674Z,91.10
2019-03-31T00:41:19.151Z,91.00
2019-03-31T00:43:47.543Z,91.10
2019-03-31T00:46:16.013Z,91.20
2019-03-31T00:48:44.419Z,91.20
2019-03-31T00:51:12.970Z,91.20
2019-03-31T00:53:41.357Z,91.40
2019-03-31T00:56:09.832Z,91.00
2019-03-31T00:58:38.240Z,90.70
2019-03-31T01:01:08.747Z,90.60
2019-03-31T01:03:37.229Z,90.90
2019-03-31T01:06:05.967Z,91.20
2019-03-31T01:08:35.506Z,91.30
2019-03-31T01:11:07.987Z,91.30
2019-03-31T01:13:36.543Z,91.40
2019-03-31T01:16:05.042Z,91.30
2019-03-31T01:18:34.027Z,91.50
2019-03-31T01:21:02.433Z,91.70
2019-03-31T01:23:30.876Z,92.00
2019-03-31T01:26:00.624Z,92.30
2019-03-31T01:28:29.127Z,92.40
2019-03-31T01:30:57.622Z,92.60
2019-03-31T01:33:26.559Z,92.70
2019-03-31T01:35:55.311Z,92.80
2019-03-31T01:38:23.824Z,92.80
2019-03-31T01:40:52.473Z,92.80
2019-03-31T01:43:21.125Z,92.80
2019-03-31T01:45:49.703Z,92.70
2019-03-31T01:48:18.213Z,92.70
2019-03-31T01:50:46.897Z,92.90
2019-03-31T01:53:15.340Z,93.10
2019-03-31T01:55:43.766Z,93.20
2019-03-31T01:58:12.272Z,93.20
2019-03-31T02:00:42.372Z,93.20
2019-03-31T02:03:10.801Z,93.10
2019-03-31T02:05:39.376Z,93.00
2019-03-31T02:08:08.250Z,92.80
2019-03-31T02:10:36.672Z,92.90
2019-03-31T02:13:05.314Z,93.10
2019-03-31T02:15:33.882Z,93.20
2019-03-31T02:18:02.307Z,93.30
2019-03-31T02:20:30.737Z,93.30
2019-03-31T02:22:59.158Z,93.20
2019-03-31T02:25:27.636Z,92.70
2019-03-31T02:27:56.064Z,92.50
2019-03-31T02:30:24.588Z,92.50
2019-03-31T02:32:53.005Z,92.60
2019-03-31T02:35:21.425Z,92.60
2019-03-31T02:37:49.834Z,92.70
2019-03-31T02:40:18.310Z,93.00
2019-03-31T02:42:48.265Z,93.00
2019-03-31T02:45:16.699Z,93.10
2019-03-31T02:47:45.101Z,93.40
2019-03-31T02:50:16.609Z,93.70
2019-03-31T02:52:45.104Z,93.90
2019-03-31T02:55:13.612Z,94.00
2019-03-31T02:57:43.225Z,94.00
2019-03-31T03:00:11.832Z,94.00
2019-03-31T03:02:42.633Z,94.00
2019-03-31T03:05:19.799Z,93.90
2019-03-31T03:07:44.096Z,93.80
2019-03-31T03:10:12.609Z,93.90
2019-03-31T03:12:42.979Z,93.90
2019-03-31T03:15:11.581Z,93.90
2019-03-31T03:17:40.021Z,93.70
2019-03-31T03:20:08.774Z,93.40
2019-03-31T03:22:37.220Z,93.20
2019-03-31T03:25:05.714Z,93.20
2019-03-31T03:27:34.170Z,93.40
2019-03-31T03:30:02.811Z,93.80
2019-03-31T03:32:31.254Z,94.10
2019-03-31T03:34:59.686Z,94.20
2019-03-31T03:37:28.201Z,94.20
2019-03-31T03:39:56.603Z,94.20
2019-03-31T03:42:25.052Z,94.30
2019-03-31T03:44:53.502Z,94.60
2019-03-31T03:47:21.966Z,94.80
2019-03-31T03:49:52.028Z,94.80
2019-03-31T03:52:20.546Z,95.20
2019-03-31T03:54:48.952Z,94.90
2019-03-31T03:57:17.408Z,94.90
2019-03-31T03:59:45.822Z,94.90
2019-03-31T04:02:14.281Z,94.90
2019-03-31T04:04:42.707Z,95.10
2019-03-31T04:07:11.129Z,95.20
2019-03-31T04:09:39.556Z,95.20
2019-03-31T04:12:07.988Z,95.30
2019-03-31T04:14:36.447Z,95.40
2019-03-31T04:17:04.882Z,95.50
2019-03-31T04:19:33.469Z,95.50
2019-03-31T04:22:01.906Z,95.60
2019-03-31T04:24:31.956Z,95.70
2019-03-31T04:27:00.402Z,95.70
2019-03-31T04:29:28.911Z,95.90
2019-03-31T04:31:57.436Z,96.00
2019-03-31T04:34:25.974Z,96.00
2019-03-31T04:36:54.473Z,96.10
2019-03-31T04:39:22.910Z,96.20
2019-03-31T04:41:51.318Z,96.20
2019-03-31T04:44:19.747Z,96.30
2019-03-31T04:46:48.167Z,96.20
2019-03-31T04:49:16.594Z,96.00
2019-03-31T04:51:45.071Z,95.70
2019-03-31T04:54:13.505Z,95.80
2019-03-31T04:56:41.926Z,95.50
2019-03-31T04:59:10.357Z,95.20
2019-03-31T05:01:38.782Z,95.10
2019-03-31T05:04:07.216Z,95.30
2019-03-31T05:06:35.626Z,95.60
2019-03-31T05:09:05.418Z,95.90
2019-03-31T05:11:34.351Z,96.10
2019-03-31T05:14:02.784Z,96.20
2019-03-31T05:16:31.207Z,96.30
2019-03-31T05:18:59.636Z,96.30
2019-03-31T05:21:28.046Z,96.20
2019-03-31T05:23:56.496Z,96.20
2019-03-31T05:26:24.990Z,96.00
2019-03-31T05:28:53.404Z,96.00
2019-03-31T05:31:21.858Z,95.90
2019-03-31T05:33:50.277Z,95.70
2019-03-31T05:36:18.696Z,95.90
2019-03-31T05:38:47.161Z,95.00
2019-03-31T05:41:15.570Z,95.00
2019-03-31T05:43:43.980Z,95.20
2019-03-31T05:46:12.423Z,95.20
2019-03-31T05:48:40.828Z,95.20
2019-03-31T05:51:09.250Z,95.40
2019-03-31T05:53:37.675Z,95.60
2019-03-31T05:56:06.113Z,95.50
2019-03-31T05:58:36.077Z,95.40
2019-03-31T06:01:04.500Z,95.60
2019-03-31T06:03:32.920Z,95.50
2019-03-31T06:06:01.338Z,95.00
2019-03-31T06:08:29.748Z,94.20
2019-03-31T06:10:58.173Z,93.20
2019-03-31T06:13:26.589Z,92.40
2019-03-31T06:15:55.096Z,91.50
2019-03-31T06:18:23.522Z,91.10
2019-03-31T06:20:51.954Z,90.80
2019-03-31T06:23:20.395Z,90.60
2019-03-31T06:25:48.905Z,90.30
2019-03-31T06:28:17.324Z,89.50
2019-03-31T06:30:45.782Z,88.40
2019-03-31T06:33:14.193Z,88.10
2019-03-31T06:35:42.660Z,88.10
2019-03-31T06:38:11.061Z,88.20
2019-03-31T06:40:40.570Z,88.80
2019-03-31T06:43:09.009Z,89.60
2019-03-31T06:45:37.420Z,89.50
2019-03-31T06:48:05.942Z,89.50
2019-03-31T06:50:34.563Z,88.90
2019-03-31T06:53:02.980Z,88.40
2019-03-31T06:55:31.430Z,88.30
2019-03-31T06:57:59.969Z,88.20
2019-03-31T07:00:28.697Z,88.00
2019-03-31T07:02:57.285Z,88.00
2019-03-31T07:05:25.692Z,88.10
2019-03-31T07:07:55.573Z,88.40
2019-03-31T07:10:23.987Z,87.70
2019-03-31T07:12:52.434Z,88.80
2019-03-31T07:15:20.852Z,87.80
2019-03-31T07:17:49.298Z,88.30
2019-03-31T07:20:17.953Z,87.10
2019-03-31T07:22:46.398Z,86.50
2019-03-31T07:25:15.669Z,86.10
2019-03-31T07:27:44.199Z,85.40
2019-03-31T07:30:18.273Z,84.40
2019-03-31T07:32:46.685Z,83.70
2019-03-31T07:35:18.780Z,82.40
2019-03-31T07:37:47.540Z,82.20
2019-03-31T07:40:18.271Z,82.50
2019-03-31T07:42:47.042Z,81.50
2019-03-31T07:45:16.359Z,80.10
2019-03-31T07:47:45.205Z,79.60
2019-03-31T07:50:16.388Z,79.20
2019-03-31T07:52:44.878Z,78.10
2019-03-31T07:55:13.786Z,76.10
2019-03-31T07:57:42.510Z,75.10
2019-03-31T08:00:14.737Z,72.20
2019-03-31T08:02:43.216Z,72.80
2019-03-31T08:05:11.901Z,73.20
2019-03-31T08:07:40.422Z,73.80
2019-03-31T08:10:10.589Z,74.60
2019-03-31T08:12:39.069Z,75.10
2019-03-31T08:15:09.158Z,74.70
2019-03-31T08:17:38.798Z,74.50
2019-03-31T08:20:10.072Z,71.80
2019-03-31T08:22:38.513Z,72.60
2019-03-31T08:25:07.583Z,72.00
2019-03-31T08:27:36.062Z,71.60
2019-03-31T08:30:07.572Z,70.80
2019-03-31T08:32:36.080Z,70.40
2019-03-31T08:35:09.009Z,69.40
2019-03-31T08:40:28.414Z,68.00
2019-03-31T08:54:03.953Z,64.00
2019-03-31T08:59:12.660Z,60.90
2019-03-31T09:04:32.797Z,60.20
2019-03-31T09:12:48.995Z,59.40
2019-03-31T09:21:22.063Z,58.70
2019-03-31T09:29:43.727Z,56.20
2019-03-31T09:32:11.393Z,55.90
2019-03-31T09:34:39.833Z,56.30
2019-03-31T09:37:09.705Z,55.30
2019-03-31T09:45:37.951Z,54.80
2019-03-31T09:51:04.745Z,52.30
2019-03-31T09:59:17.526Z,50.90
2019-03-31T10:01:46.619Z,48.20
2019-03-31T10:04:21.570Z,47.00
2019-03-31T10:09:54.217Z,46.30
2019-03-31T10:18:18.089Z,43.60
2019-03-31T10:35:53.156Z,39.60
2019-03-31T10:41:32.381Z,38.80
2019-03-31T10:44:02.251Z,38.70
2019-03-31T10:49:40.552Z,38.40
2019-03-31T10:55:08.618Z,39.10
2019-03-31T10:57:42.735Z,39.10
2019-03-31T11:00:15.592Z,38.90
2019-03-31T11:05:36.626Z,38.30
2019-03-31T11:11:18.450Z,38.50
2019-03-31T11:16:53.248Z,37.50
2019-03-31T11:25:36.647Z,38.60
2019-03-31T11:28:13.643Z,39.40
2019-03-31T11:30:45.019Z,37.60
2019-03-31T11:33:19.968Z,38.10
2019-03-31T11:35:48.582Z,37.40
2019-03-31T11:38:18.728Z,37.70
2019-03-31T11:40:48.724Z,36.90
2019-03-31T11:43:20.170Z,37.40
2019-03-31T11:46:04.592Z,36.60
2019-03-31T11:48:41.611Z,35.90
2019-03-31T11:51:19.168Z,36.10
2019-03-31T11:53:56.023Z,36.00
2019-03-31T11:59:43.696Z,36.90
2019-03-31T12:01:53.270Z,36.60
2019-03-31T12:07:28.331Z,36.10
2019-03-31T12:09:55.642Z,36.80
2019-03-31T12:12:25.666Z,36.80
2019-03-31T12:15:08.982Z,36.70
2019-03-31T12:20:32.674Z,37.20
2019-03-31T12:25:58.461Z,36.30
2019-03-31T12:28:26.990Z,36.20
2019-03-31T12:31:06.320Z,36.10
2019-03-31T12:33:48.510Z,35.10
2019-03-31T12:36:18.898Z,33.80
2019-03-31T12:38:49.432Z,34.50
2019-03-31T12:41:18.128Z,34.50
2019-03-31T12:43:46.631Z,34.30
2019-03-31T12:46:15.172Z,33.50
2019-03-31T12:48:43.695Z,33.00
2019-03-31T12:51:12.646Z,32.60
2019-03-31T12:53:41.107Z,32.80
2019-03-31T12:56:09.529Z,33.00
2019-03-31T12:58:37.972Z,33.40
2019-03-31T13:04:14.893Z,31.20
2019-03-31T13:06:44.236Z,29.60
2019-03-31T13:09:14.615Z,29.40
2019-03-31T13:14:46.721Z,29.00
2019-03-31T13:17:23.459Z,30.50
2019-03-31T13:19:51.913Z,29.10
2019-03-31T13:22:20.359Z,29.60
2019-03-31T13:25:18.067Z,29.80
2019-03-31T13:27:48.027Z,29.30
2019-03-31T13:30:16.645Z,28.90
2019-03-31T13:33:01.174Z,28.70
2019-03-31T13:38:20.392Z,27.70
2019-03-31T13:40:50.464Z,28.60
2019-03-31T13:43:18.958Z,28.60
2019-03-31T13:51:35.350Z,29.10
2019-03-31T13:54:07.229Z,28.60
2019-03-31T13:56:36.458Z,27.60
2019-03-31T14:02:02.985Z,27.30
2019-03-31T14:04:36.994Z,27.50
2019-03-31T14:07:06.902Z,28.20
2019-03-31T14:09:35.690Z,26.90
2019-03-31T14:12:04.220Z,28.80
2019-03-31T14:14:35.299Z,28.20
2019-03-31T14:17:04.740Z,28.10
2019-03-31T14:19:33.232Z,27.60
2019-03-31T14:25:01.256Z,27.90
2019-03-31T14:27:29.722Z,27.60
2019-03-31T14:30:12.703Z,27.60
2019-03-31T14:35:40.058Z,26.60
2019-03-31T14:38:10.627Z,26.30
2019-03-31T14:40:42.744Z,26.50
2019-03-31T14:43:11.324Z,26.60
2019-03-31T14:45:39.798Z,25.00
2019-03-31T14:48:08.226Z,24.70
2019-03-31T14:50:37.639Z,24.60
2019-03-31T14:53:23.278Z,23.20
2019-03-31T14:55:53.445Z,22.40
2019-03-31T14:58:33.495Z,20.60
2019-03-31T15:03:56.186Z,20.80
2019-03-31T15:06:24.826Z,21.10
2019-03-31T15:11:51.052Z,23.10
2019-03-31T15:17:06.413Z,22.90
2019-03-31T15:19:38.360Z,23.50
2019-03-31T15:25:01.198Z,24.40
2019-03-31T15:27:29.630Z,25.60
2019-03-31T15:29:58.149Z,25.90
2019-03-31T15:32:26.679Z,25.60
2019-03-31T15:34:56.692Z,25.50
2019-03-31T15:37:25.218Z,23.90
2019-03-31T15:39:55.502Z,23.60
2019-03-31T15:42:24.099Z,23.50
2019-03-31T15:47:42.219Z,25.90
2019-03-31T15:50:12.165Z,26.60
2019-03-31T15:52:43.041Z,26.90
2019-03-31T15:57:52.048Z,27.10
2019-03-31T16:03:13.375Z,27.30
2019-03-31T16:08:34.051Z,28.20
2019-03-31T16:13:51.860Z,28.30
2019-03-31T16:19:08.209Z,28.60
2019-03-31T16:21:38.248Z,29.20
2019-03-31T16:24:06.899Z,29.30
2019-03-31T16:29:39.611Z,29.40
2019-03-31T16:32:13.869Z,30.00
2019-03-31T16:34:50.439Z,30.90
2019-03-31T16:37:18.888Z,30.40
2019-03-31T16:39:47.335Z,30.00
2019-03-31T16:42:16.150Z,30.40
2019-03-31T16:47:38.829Z,31.00
2019-03-31T16:50:11.387Z,31.20
2019-03-31T16:52:40.368Z,31.40
2019-03-31T16:55:09.874Z,32.00
2019-03-31T16:57:38.326Z,31.80
2019-03-31T17:00:07.795Z,32.20
2019-03-31T17:02:36.258Z,32.30
2019-03-31T17:05:20.778Z,33.00
2019-03-31T17:07:36.599Z,32.20
2019-03-31T17:10:07.341Z,32.50
2019-03-31T17:12:35.829Z,33.00
2019-03-31T17:15:06.426Z,32.40
2019-03-31T17:17:35.184Z,33.20
2019-03-31T17:20:05.616Z,33.00
2019-03-31T17:22:34.145Z,33.70
2019-03-31T17:25:02.784Z,33.80
2019-03-31T17:27:31.711Z,33.90
2019-03-31T17:30:00.385Z,33.40
2019-03-31T17:32:28.922Z,33.90
2019-03-31T17:34:58.256Z,34.10
2019-03-31T17:37:26.681Z,34.60
2019-03-31T17:40:05.932Z,34.80
2019-03-31T17:42:25.721Z,35.10
2019-03-31T17:44:54.277Z,35.00
2019-03-31T17:47:22.681Z,35.40
2019-03-31T17:49:51.149Z,35.80
2019-03-31T17:52:19.875Z,35.50
2019-03-31T17:54:48.321Z,36.30
2019-03-31T17:57:16.911Z,36.50
2019-03-31T17:59:45.359Z,36.90
2019-03-31T18:02:13.809Z,37.40
2019-03-31T18:04:42.338Z,37.50
2019-03-31T18:07:10.816Z,38.30
2019-03-31T18:09:39.318Z,38.40
2019-03-31T18:12:07.806Z,39.00
2019-03-31T18:14:36.232Z,39.40
2019-03-31T18:17:04.766Z,39.40
2019-03-31T18:19:33.374Z,39.70
2019-03-31T18:22:15.531Z,40.00
2019-03-31T18:24:31.990Z,40.20
2019-03-31T18:27:00.468Z,40.80
2019-03-31T18:29:34.966Z,40.90
2019-03-31T18:32:05.032Z,41.00
2019-03-31T18:34:33.537Z,41.90
2019-03-31T18:37:01.985Z,41.40
2019-03-31T18:39:30.446Z,41.40
2019-03-31T18:41:58.949Z,42.00
2019-03-31T18:44:27.962Z,42.40
2019-03-31T18:46:56.522Z,42.90
2019-03-31T18:49:25.090Z,43.50
2019-03-31T18:51:53.622Z,44.30
2019-03-31T18:54:29.636Z,45.70
2019-03-31T18:56:59.815Z,48.30
2019-03-31T18:59:39.538Z,50.20
2019-03-31T19:02:15.356Z,51.90
2019-03-31T19:04:54.213Z,53.60
2019-03-31T19:07:26.992Z,54.70
2019-03-31T19:10:23.991Z,56.00
2019-03-31T19:12:52.931Z,56.90
2019-03-31T19:15:35.214Z,57.80
2019-03-31T19:18:11.268Z,58.50
2019-03-31T19:20:41.859Z,59.40
2019-03-31T19:23:29.164Z,59.40
2019-03-31T19:25:59.271Z,59.80
2019-03-31T19:28:33.551Z,60.30
2019-03-31T19:31:01.511Z,60.70
2019-03-31T19:33:51.633Z,61.50
2019-03-31T19:41:56.994Z,65.90
2019-03-31T19:44:45.332Z,64.80
2019-03-31T19:47:15.455Z,64.80
2019-03-31T19:50:01.990Z,65.40
2019-03-31T19:52:34.356Z,66.00
2019-03-31T19:55:04.596Z,66.90
2019-03-31T19:57:46.601Z,67.90
2019-03-31T20:00:19.896Z,68.70
2019-03-31T20:03:06.011Z,69.80
2019-03-31T20:05:36.130Z,70.70
2019-03-31T20:11:19.491Z,71.80
2019-03-31T20:13:54.366Z,72.20
2019-03-31T20:16:33.565Z,72.60
2019-03-31T20:19:26.477Z,72.80
2019-03-31T20:21:56.556Z,73.30
2019-03-31T20:24:28.314Z,73.50
2019-03-31T20:26:59.992Z,73.90
2019-03-31T20:29:38.426Z,74.10
2019-03-31T20:32:24.549Z,74.40
2019-03-31T20:35:14.693Z,74.70
2019-03-31T20:38:00.129Z,74.50
2019-03-31T20:43:24.968Z,75.70
2019-03-31T20:45:56.485Z,77.80
2019-03-31T20:48:33.053Z,77.60
2019-03-31T20:51:02.588Z,78.90
2019-03-31T20:53:31.060Z,79.40
2019-03-31T20:56:02.567Z,79.20
2019-03-31T20:58:31.105Z,79.00
2019-03-31T21:00:59.657Z,78.60
2019-03-31T21:03:31.941Z,78.10
2019-03-31T21:06:00.394Z,78.30
2019-03-31T21:08:28.960Z,79.40
2019-03-31T21:13:47.553Z,79.80
2019-03-31T21:16:16.030Z,79.50
2019-03-31T21:18:47.487Z,78.80
2019-03-31T21:21:15.959Z,78.70
2019-03-31T21:23:44.611Z,79.40
2019-03-31T21:26:13.244Z,80.10
2019-03-31T21:28:49.465Z,81.00
2019-03-31T21:31:22.622Z,81.60
2019-03-31T21:33:50.004Z,81.40
2019-03-31T21:36:18.417Z,81.70
2019-03-31T21:38:46.863Z,81.20
2019-03-31T21:44:12.981Z,81.20
2019-03-31T21:46:50.921Z,82.40
2019-03-31T21:49:21.011Z,82.30
2019-03-31T21:51:49.768Z,82.60
2019-03-31T21:54:32.532Z,82.90
2019-03-31T21:57:04.221Z,83.40
2019-03-31T21:59:36.726Z,83.70
2019-03-31T22:02:07.019Z,84.40
2019-03-31T22:04:38.509Z,84.90
2019-03-31T22:07:11.010Z,85.20
2019-03-31T22:09:39.514Z,85.30
2019-03-31T22:12:07.939Z,85.30
2019-03-31T22:14:36.399Z,85.70
2019-03-31T22:17:04.839Z,85.70
2019-03-31T22:19:33.668Z,85.60
2019-03-31T22:22:02.118Z,86.30
2019-03-31T22:24:30.772Z,86.50
2019-03-31T22:26:59.193Z,86.80
2019-03-31T22:29:27.614Z,87.40
2019-03-31T22:31:56.019Z,88.40
2019-03-31T22:34:24.465Z,88.60
2019-03-31T22:36:52.883Z,88.60
2019-03-31T22:39:21.615Z,87.80
2019-03-31T22:41:53.362Z,88.10
2019-03-31T22:44:21.436Z,88.20
2019-03-31T22:46:54.328Z,88.70
2019-03-31T22:49:20.110Z,89.70
2019-03-31T22:51:53.727Z,89.40
2019-03-31T22:54:22.758Z,88.90
2019-03-31T22:56:52.753Z,88.70
2019-03-31T22:59:21.159Z,88.20
2019-03-31T23:01:49.584Z,88.50
2019-03-31T23:04:20.035Z,89.80
2019-03-31T23:07:06.385Z,89.10
2019-03-31T23:09:36.993Z,89.00
2019-03-31T23:12:18.562Z,88.40
2019-03-31T23:14:50.415Z,88.60
2019-03-31T23:17:21.170Z,88.00
2019-03-31T23:19:49.645Z,87.70
2019-03-31T23:22:31.820Z,87.90
2019-03-31T23:25:06.252Z,87.90
2019-03-31T23:27:34.383Z,87.90
2019-03-31T23:30:23.441Z,88.10
2019-03-31T23:35:47.409Z,88.20
2019-03-31T23:38:15.821Z,89.20
2019-03-31T23:40:44.314Z,90.20
2019-03-31T23:43:12.786Z,90.30
2019-03-31T23:45:41.279Z,90.40
2019-03-31T23:48:09.696Z,90.60
2019-03-31T23:50:38.166Z,90.80
2019-03-31T23:53:06.722Z,90.80
2019-03-31T23:55:41.417Z,91.10
2019-03-31T23:58:13.720Z,91.20
